createdAt,value
2023-04-25T00:03:16.635Z,11.75
2023-04-25T00:08:18.878Z,11.70
2023-04-25T00:13:21.407Z,11.59
2023-04-25T00:18:23.669Z,11.51
2023-04-25T00:23:25.768Z,11.45
2023-04-25T00:28:27.718Z,11.31
2023-04-25T00:33:29.891Z,11.22
2023-04-25T00:38:31.961Z,11.27
2023-04-25T00:43:35.072Z,11.18
2023-04-25T00:48:36.966Z,11.13
2023-04-25T00:53:38.948Z,11.10
2023-04-25T00:58:42.805Z,11.06
2023-04-25T01:03:48.141Z,11.03
2023-04-25T01:08:50.160Z,11.01
2023-04-25T01:13:52.777Z,10.95
2023-04-25T01:18:56.138Z,10.80
2023-04-25T01:23:58.312Z,10.75
2023-04-25T01:29:01.044Z,10.64
2023-04-25T01:34:02.991Z,10.58
2023-04-25T01:39:05.049Z,10.64
2023-04-25T01:44:07.006Z,10.60
2023-04-25T01:49:10.151Z,10.51
2023-04-25T01:54:12.598Z,10.47
2023-04-25T01:59:14.504Z,10.46
2023-04-25T02:04:41.083Z,10.41
2023-04-25T02:09:43.985Z,10.20
2023-04-25T02:14:47.601Z,10.13
2023-04-25T02:20:01.050Z,10.11
2023-04-25T02:25:03.452Z,10.09
2023-04-25T02:30:07.695Z,10.04
2023-04-25T02:35:10.328Z,10.09
2023-04-25T02:40:12.474Z,10.01
2023-04-25T02:45:14.433Z,9.97
2023-04-25T02:50:16.323Z,9.96
2023-04-25T02:55:18.424Z,9.88
2023-04-25T03:00:21.475Z,9.70
2023-04-25T03:05:23.426Z,9.75
2023-04-25T03:10:25.467Z,9.97
2023-04-25T03:15:27.723Z,10.13
2023-04-25T03:20:30.016Z,10.20
2023-04-25T03:25:32.540Z,10.23
2023-04-25T03:30:34.541Z,10.13
2023-04-25T03:35:36.952Z,9.98
2023-04-25T03:40:39.254Z,9.81
2023-04-25T03:45:52.146Z,9.77
2023-04-25T03:50:57.002Z,9.81
2023-04-25T03:55:59.557Z,9.76
2023-04-25T04:01:03.846Z,9.74
2023-04-25T04:06:08.300Z,9.86
2023-04-25T04:11:16.229Z,9.94
2023-04-25T04:16:18.184Z,10.01
2023-04-25T04:21:20.300Z,10.08
2023-04-25T04:26:25.375Z,10.15
2023-04-25T04:31:33.871Z,10.22
2023-04-25T04:36:36.109Z,10.26
2023-04-25T04:41:38.430Z,10.28
2023-04-25T04:47:07.508Z,10.20
2023-04-25T04:52:28.110Z,10.18
2023-04-25T04:57:56.527Z,10.26
2023-04-25T05:03:28.577Z,10.37
2023-04-25T05:09:00.130Z,10.48
2023-04-25T05:14:20.462Z,10.48
2023-04-25T05:19:41.107Z,10.55
2023-04-25T05:25:09.067Z,10.72
2023-04-25T05:30:36.899Z,10.72
2023-04-25T05:35:46.451Z,10.71
2023-04-25T05:40:49.452Z,10.78
2023-04-25T05:46:08.097Z,10.92
2023-04-25T05:51:24.890Z,10.99
2023-04-25T05:56:45.117Z,11.05
2023-04-25T06:01:47.815Z,11.10
2023-04-25T06:06:49.871Z,11.02
2023-04-25T06:11:51.661Z,10.90
2023-04-25T06:16:54.158Z,11.00
2023-04-25T06:21:55.994Z,11.17
2023-04-25T06:26:58.111Z,11.41
2023-04-25T06:32:00.676Z,11.54
2023-04-25T06:37:02.788Z,11.77
2023-04-25T06:42:04.911Z,12.06
2023-04-25T06:47:16.548Z,12.23
2023-04-25T06:52:19.189Z,12.44
2023-04-25T06:57:22.029Z,12.66
2023-04-25T07:02:24.560Z,12.60
2023-04-25T07:07:28.338Z,12.53
2023-04-25T07:12:33.013Z,12.74
2023-04-25T07:17:35.458Z,12.88
2023-04-25T07:22:37.426Z,12.82
2023-04-25T07:27:40.445Z,12.86
2023-04-25T07:38:09.240Z,12.67
2023-04-25T07:43:13.482Z,12.90
2023-04-25T07:48:23.780Z,13.06
2023-04-25T07:53:28.172Z,13.20
2023-04-25T07:58:35.163Z,13.50
2023-04-25T08:03:40.065Z,13.32
2023-04-25T08:08:49.504Z,13.31
2023-04-25T08:13:54.577Z,13.34
2023-04-25T08:18:58.077Z,13.45
2023-04-25T08:24:00.105Z,13.71
2023-04-25T08:29:06.715Z,13.71
2023-04-25T08:34:11.001Z,13.61
2023-04-25T08:39:18.559Z,13.48
2023-04-25T08:44:37.726Z,13.53
2023-04-25T08:49:45.784Z,13.36
2023-04-25T08:54:50.188Z,13.09
2023-04-25T08:59:54.200Z,13.07
2023-04-25T09:04:58.522Z,13.02
2023-04-25T09:10:03.005Z,12.95
2023-04-25T09:15:12.385Z,12.94
2023-04-25T09:20:35.333Z,12.76
2023-04-25T09:25:40.387Z,12.86
2023-04-25T09:30:47.178Z,12.82
2023-04-25T09:36:12.302Z,12.76
2023-04-25T09:41:32.114Z,12.81
2023-04-25T09:46:39.938Z,12.74
2023-04-25T09:52:01.336Z,12.58
2023-04-25T09:57:19.192Z,12.51
2023-04-25T10:02:28.935Z,12.59
2023-04-25T10:07:39.445Z,12.54
2023-04-25T10:12:47.052Z,12.74
2023-04-25T10:17:51.126Z,13.05
2023-04-25T10:22:57.671Z,13.10
2023-04-25T10:28:02.166Z,13.03
2023-04-25T10:33:18.659Z,13.08
2023-04-25T10:38:20.771Z,13.23
2023-04-25T10:43:38.957Z,13.24
2023-04-25T10:48:48.064Z,13.14
2023-04-25T10:53:56.308Z,13.02
2023-04-25T10:59:16.802Z,12.80
2023-04-25T11:04:26.551Z,12.56
2023-04-25T11:09:29.161Z,12.52
2023-04-25T11:14:31.062Z,12.40
2023-04-25T11:19:33.396Z,12.31
2023-04-25T11:24:37.443Z,12.17
2023-04-25T11:29:39.273Z,12.15
2023-04-25T11:34:44.647Z,12.03
2023-04-25T11:39:49.840Z,12.07
2023-04-25T11:44:52.915Z,12.07
2023-04-25T11:49:55.205Z,12.07
2023-04-25T11:54:58.180Z,12.09
2023-04-25T12:00:27.024Z,12.13
2023-04-25T12:05:33.786Z,12.04
2023-04-25T12:10:39.830Z,12.18
2023-04-25T12:15:42.090Z,12.23
2023-04-25T12:20:44.245Z,12.04
2023-04-25T12:25:48.252Z,11.74
2023-04-25T12:31:08.717Z,11.88
2023-04-25T12:36:12.733Z,12.18
2023-04-25T12:41:14.566Z,12.46
2023-04-25T12:46:16.477Z,12.64
2023-04-25T12:51:18.345Z,12.78
2023-04-25T12:56:22.328Z,12.71
2023-04-25T13:01:27.590Z,12.49
2023-04-25T13:06:31.120Z,12.54
2023-04-25T13:11:32.888Z,12.45
2023-04-25T13:16:34.829Z,12.36
2023-04-25T13:21:36.931Z,12.17
2023-04-25T13:26:38.952Z,12.23
2023-04-25T13:31:40.757Z,12.22
2023-04-25T13:36:42.665Z,12.12
2023-04-25T13:41:44.430Z,11.98
2023-04-25T13:46:47.954Z,11.82
2023-04-25T13:51:49.852Z,11.63
2023-04-25T13:56:51.749Z,11.42
2023-04-25T14:01:53.666Z,11.42
2023-04-25T14:06:56.295Z,11.31
2023-04-25T14:11:58.173Z,11.26
2023-04-25T14:17:00.075Z,11.26
2023-04-25T14:22:01.949Z,11.32
2023-04-25T14:27:04.449Z,11.31
2023-04-25T14:32:06.562Z,11.35
2023-04-25T14:37:08.375Z,11.36
2023-04-25T14:42:10.138Z,11.59
2023-04-25T14:47:12.063Z,12.03
2023-04-25T14:52:13.805Z,12.20
2023-04-25T14:57:16.385Z,12.18
2023-04-25T15:02:18.749Z,12.25
2023-04-25T15:07:20.728Z,12.14
2023-04-25T15:12:22.614Z,12.32
2023-04-25T15:17:24.427Z,12.44
2023-04-25T15:22:26.441Z,12.35
2023-04-25T15:27:28.399Z,12.17
2023-04-25T15:32:30.179Z,11.96
2023-04-25T15:37:32.289Z,11.86
2023-04-25T15:42:34.129Z,11.72
2023-04-25T15:47:36.973Z,11.68
2023-04-25T15:52:39.355Z,11.55
2023-04-25T15:57:43.858Z,11.48
2023-04-25T16:02:47.021Z,11.45
2023-04-25T16:07:49.404Z,11.42
2023-04-25T16:12:51.408Z,11.40
2023-04-25T16:17:53.258Z,11.49
2023-04-25T16:22:55.617Z,11.57
2023-04-25T16:27:57.441Z,11.59
2023-04-25T16:32:59.330Z,11.39
2023-04-25T16:38:01.223Z,11.34
2023-04-25T16:43:03.031Z,11.46
2023-04-25T16:48:04.925Z,11.57
2023-04-25T16:53:06.757Z,11.51
2023-04-25T16:58:11.293Z,11.45
2023-04-25T17:03:13.392Z,11.49
2023-04-25T17:08:15.287Z,11.51
2023-04-25T17:13:17.221Z,11.47
2023-04-25T17:18:19.048Z,11.33
2023-04-25T17:23:21.353Z,11.33
2023-04-25T17:28:23.237Z,11.37
2023-04-25T17:33:27.139Z,11.37
2023-04-25T17:38:29.070Z,11.28
2023-04-25T17:43:31.536Z,11.18
2023-04-25T17:48:33.343Z,11.12
2023-04-25T17:53:35.930Z,11.16
2023-04-25T17:58:38.224Z,11.12
2023-04-25T18:03:40.609Z,11.09
2023-04-25T18:08:42.526Z,11.05
2023-04-25T18:13:44.305Z,10.96
2023-04-25T18:18:53.284Z,10.90
2023-04-25T18:23:55.704Z,10.75
2023-04-25T18:28:57.479Z,10.62
2023-04-25T18:33:59.564Z,10.53
2023-04-25T18:39:15.111Z,10.37
2023-04-25T18:44:23.561Z,10.30
2023-04-25T18:49:25.391Z,10.27
2023-04-25T18:54:27.285Z,10.09
2023-04-25T18:59:29.232Z,9.99
2023-04-25T19:04:31.465Z,9.99
2023-04-25T19:09:33.571Z,10.03
2023-04-25T19:14:36.267Z,9.94
2023-04-25T19:19:38.403Z,9.95
2023-04-25T19:24:40.968Z,9.85
2023-04-25T19:29:48.121Z,9.90
2023-04-25T19:34:50.222Z,9.87
2023-04-25T19:39:52.041Z,9.74
2023-04-25T19:44:53.955Z,9.54
2023-04-25T19:49:55.767Z,9.43
2023-04-25T19:55:02.275Z,9.45
2023-04-25T20:00:12.072Z,9.43
2023-04-25T20:05:18.498Z,9.40
2023-04-25T20:10:20.496Z,9.47
2023-04-25T20:15:22.356Z,9.45
2023-04-25T20:20:24.203Z,9.39
2023-04-25T20:25:26.098Z,9.41
2023-04-25T20:30:27.953Z,9.26
2023-04-25T20:35:31.417Z,9.15
2023-04-25T20:40:33.210Z,9.14
2023-04-25T20:45:36.211Z,9.17
2023-04-25T20:50:38.619Z,9.09
2023-04-25T20:55:41.972Z,8.86
2023-04-25T21:00:44.142Z,8.75
2023-04-25T21:05:47.004Z,8.67
2023-04-25T21:10:49.541Z,8.61
2023-04-25T21:15:53.009Z,8.54
2023-04-25T21:20:54.834Z,8.47
2023-04-25T21:25:57.234Z,8.47
2023-04-25T21:30:59.469Z,8.46
2023-04-25T21:36:01.283Z,8.52
2023-04-25T21:41:03.378Z,8.60
2023-04-25T21:51:09.969Z,8.66
2023-04-25T21:56:12.502Z,8.70
2023-04-25T22:01:15.854Z,8.62
2023-04-25T22:06:17.733Z,8.63
2023-04-25T22:11:19.580Z,8.62
2023-04-25T22:16:21.399Z,8.66
2023-04-25T22:21:24.460Z,8.68
2023-04-25T22:26:26.257Z,8.76
2023-04-25T22:31:29.120Z,8.76
2023-04-25T22:36:30.954Z,8.73
2023-04-25T22:41:32.720Z,8.61
2023-04-25T22:46:34.502Z,8.59
2023-04-25T22:51:37.114Z,8.56
2023-04-25T22:56:38.909Z,8.62
2023-04-25T23:01:40.754Z,8.58
2023-04-25T23:06:42.795Z,8.58
2023-04-25T23:11:44.842Z,8.43
2023-04-25T23:16:46.955Z,8.33
2023-04-25T23:21:48.958Z,8.37
2023-04-25T23:26:50.823Z,8.35
2023-04-25T23:31:52.631Z,8.31
2023-04-25T23:36:54.396Z,8.29
2023-04-25T23:41:56.886Z,8.35
2023-04-25T23:46:58.650Z,8.27
2023-04-25T23:52:00.742Z,8.28
2023-04-25T23:57:04.522Z,8.25
